Lake Emma, Minnesota
Current Conditions -  °F | °C
As of 12:53 PM on Thursday 23 Oct 2014 (Local Time) from KPKD Reporting Station
Clear Clear  
Wind Chill: 61°   Ceiling: Unl
Heat Index: 61°   Visibility: 10mi
Dew Point: 47°   Wind: 6mph
Humidity: 60%   Direction: NA
Pressure: 29.93"   Gusts: NA
Location:  46.9966°N, 95.0029°W
Report Text: KPKD 231753Z AUTO VRB05KT 10SM CLR 16/08 A2993 RMK AO2 SLP140 T01610083 10161 20089 58004 TSNO
Loading
Personal Weather Stations






























Interactive Weather Map
Tropical Storm Tracking
New forecast layout! Learn more

10-Day Weather Forecast

Advertisements
Track Severe Weather on mobile